< Typhoon 195710 1957 Season Typhoon 195712 >
Typhoon 195711 (CARMEN)
General InformationTrack Information on Google Maps || Disaster Info.ResourceGoogle EarthGE AnimationAtom FeedGeoJSON
Detalied Best Track (Time Zone = UTC)
Year Month Day Hour Lat. Long. Pressure (hPa) Wind (kt) Class Image Chart
1957 9 6 18 18.1 127.0 1004 0 2 -- Chart
1957 9 7 00 18.5 127.8 1004 0 2 -- Chart
1957 9 7 06 18.6 128.3 1004 0 2 -- Chart
1957 9 7 12 18.9 129.0 1004 0 2 -- Chart
1957 9 7 18 19.3 129.7 1004 0 2 -- Chart
1957 9 8 00 19.7 129.4 1004 0 2 -- Chart
1957 9 8 06 20.0 129.0 1004 0 2 -- Chart
1957 9 8 12 20.2 128.5 1004 0 2 -- Chart
1957 9 8 18 20.6 128.0 1004 0 2 -- Chart
1957 9 9 00 20.9 127.2 1000 0 2 -- Chart
1957 9 9 06 21.2 126.1 990 0 9 -- Chart
1957 9 9 12 21.3 126.0 990 0 9 -- Chart
1957 9 9 18 21.4 125.8 990 0 9 -- Chart
1957 9 10 00 21.4 125.6 990 0 9 -- Chart
1957 9 10 06 21.5 125.5 985 0 9 -- Chart
1957 9 10 12 21.2 125.3 980 0 9 -- Chart
1957 9 10 18 20.9 125.1 970 0 9 -- Chart
1957 9 11 00 20.9 125.1 970 0 9 -- Chart
1957 9 11 06 20.4 125.0 960 0 9 -- Chart
1957 9 11 12 20.0 124.7 960 0 9 -- Chart
1957 9 11 18 20.0 124.2 960 0 9 -- Chart
1957 9 12 00 19.9 123.9 960 0 9 -- Chart
1957 9 12 06 19.8 123.6 960 0 9 -- Chart
1957 9 12 12 19.7 123.1 960 0 9 -- Chart
1957 9 12 18 19.7 122.6 960 0 9 -- Chart
1957 9 13 00 19.7 122.3 960 0 9 -- Chart
1957 9 13 06 20.0 121.2 960 0 9 -- Chart
1957 9 13 12 20.4 120.4 960 0 9 -- Chart
1957 9 13 18 20.7 120.6 960 0 9 -- Chart
1957 9 14 00 21.3 119.9 965 0 9 -- Chart
1957 9 14 06 22.0 119.2 975 0 9 -- Chart
1957 9 14 12 22.5 118.6 975 0 9 -- Chart
1957 9 14 18 23.5 118.0 980 0 9 -- Chart
1957 9 15 00 23.6 117.4 985 0 9 -- Chart
1957 9 15 06 24.2 116.1 995 0 9 -- Chart
1957 9 15 12 25.0 115.0 1000 0 9 -- Chart
1957 9 15 18 25.1 116.0 1006 0 2 -- Chart
1957 9 16 00 25.9 117.3 1006 0 2 -- Chart
Japan Meteorological Agency Best Track Data | Correction Date : 1989-06-01
< Typhoon 195710 1957 Season Typhoon 195712 >

Help